Sea Island, GA (31561)

2:32 PM EST on December 21, 2014 (GMT -0500)
McKinnon | Change Station
CLOSE
Current Station
Airport
Location: Saint Simons Island,
Elevation: 20 ft
Nearby Weather Stations

Elev 20 ft 31.15 °N, 81.39 °W | Updated 39 minutes ago

Overcast
Overcast
55 °F
Feels Like 55 °F
N
16
Wind Variable Wind from NNE

Today
High -- | Low -- °F
--% Chance of Precip.
Yesterday
High -- | Low -- °F
Precip. -- in
7:19 AM 5:27 PM
Waning Crescent, 0% visible
Pressure 30.10 in
Visibility 7.0 miles
Clouds Overcast 600 ft
Dew Point 52 °F
Humidity 89%
Rainfall 0.03 in
Snow Depth Not available.
UV 1 out of 12
Pollen 2.50 out of 12
Air Quality Not available.
Flu Activity Not available.
METAR KSSI 211853Z AUTO 03014KT 7SM OVC006 13/11 A3010 RMK AO2 SLP191 T01280111

More Conditions Fewer Conditions

Pressure 30.10 in
Visibility 7.0 miles
Clouds Overcast 600 ft
Dew Point 52 °F
Humidity 89%
Rainfall 0.03 in
Snow Depth Not available.
UV 1 out of 12
Pollen 2.50 out of 12
Air Quality Not available.
Flu Activity Not available.
METAR KSSI 211853Z AUTO 03014KT 7SM OVC006 13/11 A3010 RMK AO2 SLP191 T01280111

More Conditions Fewer Conditions

10-Day Weather Forecast

Almanac

Astronomy

Dec. 21, 2014 Rise Set
Actual Time
Civil Twilight
Nautical Twilight
Astronomical Twilight
Moon
Length of Visible Light
Length of Day
Tomorrow will be .
, % of the Moon is Illuminated

Today's Extremes

State Highs State Lows

Community

WunderPhotos

Upload Photos

1,779,467 photos uploaded!

WunderBlogs® & News

Nearby

Air Quality

  Air Quality AQ Index Pollutant
Not available.

Snow Depth

Station Depth Elevation

Earthquake Activity

City Distance Mag. Time & Date
Minimum magnitude displayed is 2.5.

Coastal Water Temperatures

Place Temperature

Nearby Weather Stations